createdAt,value
2023-05-12T00:00:38.636Z,6.53
2023-05-12T00:03:24.474Z,4.18
2023-05-12T00:06:09.988Z,2.90
2023-05-12T00:08:55.585Z,4.15
2023-05-12T00:11:41.378Z,6.35
2023-05-12T00:14:26.814Z,3.90
2023-05-12T00:17:13.889Z,4.70
2023-05-12T00:19:59.383Z,3.30
2023-05-12T00:22:44.880Z,5.38
2023-05-12T00:25:30.264Z,8.68
2023-05-12T00:28:15.643Z,3.72
2023-05-12T00:31:02.914Z,3.63
2023-05-12T00:33:49.583Z,4.75
2023-05-12T00:36:35.156Z,4.13
2023-05-12T00:39:21.314Z,5.18
2023-05-12T00:42:07.385Z,3.35
2023-05-12T00:44:52.656Z,4.25
2023-05-12T00:47:38.645Z,6.43
2023-05-12T00:50:25.202Z,7.97
2023-05-12T00:53:12.314Z,6.70
2023-05-12T00:55:58.246Z,4.97
2023-05-12T00:58:46.735Z,10.65
2023-05-12T01:01:34.559Z,4.55
2023-05-12T01:04:19.971Z,7.72
2023-05-12T01:07:21.374Z,2.80
2023-05-12T01:10:18.763Z,7.65
2023-05-12T01:13:04.926Z,5.32
2023-05-12T01:15:54.516Z,6.82
2023-05-12T01:18:42.042Z,19.02
2023-05-12T01:21:27.778Z,6.53
2023-05-12T01:24:18.670Z,4.63
2023-05-12T01:27:05.410Z,4.22
2023-05-12T01:29:51.830Z,4.00
2023-05-12T01:32:39.569Z,5.72
2023-05-12T01:35:25.581Z,3.75
2023-05-12T01:38:19.001Z,2.88
2023-05-12T01:41:04.830Z,3.53
2023-05-12T01:43:50.227Z,4.32
2023-05-12T01:46:36.611Z,3.20
2023-05-12T01:49:23.119Z,6.07
2023-05-12T01:52:08.645Z,2.92
2023-05-12T01:54:54.154Z,7.88
2023-05-12T01:57:41.092Z,3.20
2023-05-12T02:00:27.376Z,5.18
2023-05-12T02:03:15.509Z,6.30
2023-05-12T02:06:01.617Z,5.88
2023-05-12T02:08:47.024Z,2.40
2023-05-12T02:11:32.458Z,5.65
2023-05-12T02:14:17.913Z,2.65
2023-05-12T02:17:04.687Z,6.43
2023-05-12T02:19:51.506Z,6.10
2023-05-12T02:22:37.206Z,4.25
2023-05-12T02:25:22.597Z,2.97
2023-05-12T02:28:10.985Z,6.25
2023-05-12T02:30:58.001Z,4.07
2023-05-12T02:33:43.667Z,3.55
2023-05-12T02:36:29.152Z,3.90
2023-05-12T02:39:14.471Z,4.93
2023-05-12T02:41:59.792Z,3.50
2023-05-12T02:44:45.800Z,3.30
2023-05-12T02:47:33.095Z,5.75
2023-05-12T02:50:19.207Z,4.95
2023-05-12T02:53:04.795Z,8.18
2023-05-12T02:55:50.745Z,3.67
2023-05-12T02:58:36.477Z,4.95
2023-05-12T03:01:21.972Z,7.90
2023-05-12T03:04:07.304Z,4.22
2023-05-12T03:06:53.138Z,4.65
2023-05-12T03:09:38.731Z,3.78
2023-05-12T03:12:24.732Z,4.40
2023-05-12T03:15:10.411Z,6.90
2023-05-12T03:17:56.619Z,8.43
2023-05-12T03:20:41.869Z,3.63
2023-05-12T03:23:27.316Z,4.40
2023-05-12T03:26:13.856Z,3.17
2023-05-12T03:28:59.141Z,3.38
2023-05-12T03:31:44.975Z,4.82
2023-05-12T03:34:31.514Z,2.63
2023-05-12T03:37:17.686Z,8.95
2023-05-12T03:40:03.925Z,5.55
2023-05-12T03:42:49.611Z,6.47
2023-05-12T03:45:36.906Z,6.57
2023-05-12T03:48:22.343Z,7.50
2023-05-12T03:51:07.672Z,3.35
2023-05-12T03:53:53.092Z,3.78
2023-05-12T03:56:39.051Z,3.40
2023-05-12T03:59:24.524Z,3.65
2023-05-12T04:02:13.081Z,4.25
2023-05-12T04:04:58.843Z,3.17
2023-05-12T04:07:44.218Z,3.00
2023-05-12T04:10:29.616Z,5.22
2023-05-12T04:13:15.455Z,6.38
2023-05-12T04:16:00.949Z,4.13
2023-05-12T04:18:46.249Z,4.40
2023-05-12T04:21:31.485Z,5.75
2023-05-12T04:24:16.976Z,10.77
2023-05-12T04:27:02.291Z,3.42
2023-05-12T04:29:47.714Z,3.67
2023-05-12T04:32:34.098Z,6.90
2023-05-12T04:35:19.406Z,8.73
2023-05-12T04:38:05.038Z,5.18
2023-05-12T04:40:50.234Z,4.30
2023-05-12T04:46:24.933Z,4.05
2023-05-12T04:49:11.494Z,6.95
2023-05-12T04:51:57.463Z,3.67
2023-05-12T04:54:44.770Z,5.30
2023-05-12T04:57:34.243Z,5.38
2023-05-12T05:00:22.061Z,7.82
2023-05-12T05:03:07.572Z,5.25
2023-05-12T05:05:53.957Z,4.78
2023-05-12T05:08:39.327Z,4.75
2023-05-12T05:11:24.730Z,7.72
2023-05-12T05:14:10.038Z,5.97
2023-05-12T05:16:56.317Z,9.52
2023-05-12T05:19:54.931Z,4.28
2023-05-12T05:22:43.860Z,8.57
2023-05-12T05:25:30.280Z,7.03
2023-05-12T05:28:15.664Z,2.95
2023-05-12T05:31:01.061Z,2.53
2023-05-12T05:33:47.685Z,8.20
2023-05-12T05:36:33.972Z,2.92
2023-05-12T05:39:19.328Z,9.25
2023-05-12T05:42:05.338Z,9.95
2023-05-12T05:44:51.011Z,6.57
2023-05-12T05:47:37.706Z,3.22
2023-05-12T05:50:23.926Z,4.90
2023-05-12T05:53:09.879Z,15.80
2023-05-12T05:55:55.457Z,6.32
2023-05-12T05:58:41.623Z,3.85
2023-05-12T06:01:27.186Z,5.65
2023-05-12T06:04:13.060Z,3.53
2023-05-12T06:06:58.334Z,8.45
2023-05-12T06:09:43.892Z,5.95
2023-05-12T06:12:29.773Z,10.63
2023-05-12T06:15:15.277Z,5.95
2023-05-12T06:18:00.767Z,5.90
2023-05-12T06:20:46.078Z,7.82
2023-05-12T06:23:32.088Z,2.40
2023-05-12T06:26:17.556Z,7.30
2023-05-12T06:29:03.669Z,2.95
2023-05-12T06:31:49.129Z,7.68
2023-05-12T06:34:34.350Z,5.57
2023-05-12T06:37:19.804Z,5.85
2023-05-12T06:40:06.146Z,7.63
2023-05-12T06:42:51.781Z,7.35
2023-05-12T06:45:39.091Z,3.58
2023-05-12T06:48:27.536Z,2.72
2023-05-12T06:51:15.836Z,4.43
2023-05-12T06:54:02.203Z,3.75
2023-05-12T06:56:49.609Z,4.63
2023-05-12T06:59:35.401Z,5.05
2023-05-12T07:02:21.221Z,3.45
2023-05-12T07:05:07.364Z,19.17
2023-05-12T07:07:52.566Z,13.50
2023-05-12T07:10:38.183Z,4.05
2023-05-12T07:13:23.479Z,3.75
2023-05-12T07:16:09.036Z,10.48
2023-05-12T07:18:54.462Z,4.55
2023-05-12T07:21:40.528Z,3.88
2023-05-12T07:24:27.729Z,3.45
2023-05-12T07:27:13.068Z,3.65
2023-05-12T07:29:59.830Z,5.15
2023-05-12T07:32:46.224Z,7.28
2023-05-12T07:35:31.636Z,3.13
2023-05-12T07:38:18.072Z,18.65
2023-05-12T07:41:03.756Z,3.35
2023-05-12T07:43:49.347Z,2.80
2023-05-12T07:46:35.164Z,3.22
2023-05-12T07:49:21.798Z,5.68
2023-05-12T07:52:07.599Z,5.70
2023-05-12T07:54:53.227Z,7.95
2023-05-12T07:57:38.564Z,1.85
2023-05-12T08:00:23.887Z,7.57
2023-05-12T08:03:10.600Z,3.80
2023-05-12T08:05:56.486Z,11.90
2023-05-12T08:08:42.426Z,8.20
2023-05-12T08:11:28.339Z,3.60
2023-05-12T08:14:13.846Z,4.50
2023-05-12T08:16:59.220Z,5.43
2023-05-12T08:19:44.508Z,6.22
2023-05-12T08:22:30.582Z,9.35
2023-05-12T08:25:15.870Z,2.65
2023-05-12T08:28:01.275Z,8.38
2023-05-12T08:30:46.747Z,13.23
2023-05-12T08:33:35.264Z,5.38
2023-05-12T08:36:20.962Z,2.65
2023-05-12T08:39:08.199Z,5.10
2023-05-12T08:42:42.839Z,2.00
2023-05-12T08:45:29.341Z,4.38
2023-05-12T08:48:17.722Z,1.25
2023-05-12T08:51:06.903Z,8.23
2023-05-12T08:53:55.349Z,2.55
2023-05-12T08:59:29.627Z,2.58
2023-05-12T09:02:17.547Z,1.15
2023-05-12T09:05:03.256Z,5.95
2023-05-12T09:07:49.809Z,4.68
2023-05-12T09:10:36.016Z,2.33
2023-05-12T09:13:49.620Z,11.60
2023-05-12T09:16:41.770Z,8.75
2023-05-12T09:19:28.282Z,3.13
2023-05-12T09:22:15.100Z,1.63
2023-05-12T09:25:01.048Z,3.75
2023-05-12T09:27:47.891Z,4.55
2023-05-12T09:30:38.081Z,8.43
2023-05-12T09:33:25.491Z,6.28
2023-05-12T09:36:11.156Z,2.67
2023-05-12T09:39:08.164Z,1.98
2023-05-12T09:41:53.988Z,5.82
2023-05-12T09:44:40.820Z,2.67
2023-05-12T09:47:34.633Z,9.23
2023-05-12T09:50:20.036Z,4.32
2023-05-12T09:53:06.395Z,1.98
2023-05-12T09:55:51.961Z,1.95
2023-05-12T09:58:44.343Z,16.25
2023-05-12T10:01:30.501Z,6.35
2023-05-12T10:04:16.046Z,2.72
2023-05-12T10:07:01.487Z,6.32
2023-05-12T10:09:49.069Z,6.55
2023-05-12T10:12:36.183Z,2.97
2023-05-12T10:15:22.789Z,4.53
2023-05-12T10:18:09.127Z,6.72
2023-05-12T10:20:56.714Z,5.72
2023-05-12T10:23:44.407Z,4.47
2023-05-12T10:26:32.555Z,3.95
2023-05-12T10:29:18.487Z,5.43
2023-05-12T10:32:04.541Z,4.88
2023-05-12T10:34:50.980Z,11.65
2023-05-12T10:37:39.571Z,1.33
2023-05-12T10:40:25.645Z,8.63
2023-05-12T10:43:22.824Z,5.20
2023-05-12T10:46:21.181Z,6.72
2023-05-12T10:49:10.161Z,2.55
2023-05-12T10:51:59.994Z,7.75
2023-05-12T10:54:46.957Z,3.53
2023-05-12T10:57:33.572Z,6.93
2023-05-12T11:00:24.938Z,2.67
2023-05-12T11:03:17.009Z,3.20
2023-05-12T11:08:50.900Z,6.70
2023-05-12T11:11:38.402Z,3.17
2023-05-12T11:14:24.351Z,2.85
2023-05-12T11:17:10.119Z,7.93
2023-05-12T11:19:55.795Z,6.32
2023-05-12T11:22:42.871Z,6.82
2023-05-12T11:25:28.758Z,3.95
2023-05-12T11:28:14.831Z,4.30
2023-05-12T11:31:01.038Z,3.53
2023-05-12T11:33:47.812Z,1.77
2023-05-12T11:36:38.337Z,1.70
2023-05-12T11:39:32.277Z,4.50
2023-05-12T11:42:20.266Z,3.10
2023-05-12T11:45:08.046Z,6.70
2023-05-12T11:48:05.642Z,8.30
2023-05-12T11:50:51.676Z,2.70
2023-05-12T11:53:40.654Z,2.25
2023-05-12T11:56:27.087Z,1.50
2023-05-12T11:59:13.957Z,5.78
2023-05-12T12:02:01.918Z,3.88
2023-05-12T12:04:47.380Z,5.28
2023-05-12T12:07:35.835Z,4.28
2023-05-12T12:10:21.966Z,6.40
2023-05-12T12:13:08.469Z,2.13
2023-05-12T12:15:53.976Z,8.65
2023-05-12T12:18:40.007Z,2.55
2023-05-12T12:21:25.766Z,2.05
2023-05-12T12:24:11.549Z,2.55
2023-05-12T12:26:57.114Z,6.53
2023-05-12T12:29:42.499Z,1.77
2023-05-12T12:32:28.135Z,5.18
2023-05-12T12:35:13.767Z,2.92
2023-05-12T12:38:00.567Z,1.63
2023-05-12T12:40:45.926Z,2.15
2023-05-12T12:43:31.336Z,3.58
2023-05-12T12:46:16.684Z,1.60
2023-05-12T12:49:01.904Z,2.10
2023-05-12T12:51:47.661Z,5.70
2023-05-12T12:54:33.729Z,3.38
2023-05-12T12:57:19.887Z,2.55
2023-05-12T13:00:06.145Z,6.80
2023-05-12T13:02:58.342Z,6.00
2023-05-12T13:05:44.369Z,3.63
2023-05-12T13:08:30.133Z,3.17
2023-05-12T13:11:15.468Z,2.22
2023-05-12T13:14:02.602Z,1.25
2023-05-12T13:16:48.354Z,7.30
2023-05-12T13:19:35.951Z,1.73
2023-05-12T13:22:23.401Z,2.50
2023-05-12T13:25:09.738Z,1.63
2023-05-12T13:27:55.047Z,4.05
2023-05-12T13:30:42.211Z,3.50
2023-05-12T13:33:27.937Z,2.33
2023-05-12T13:36:13.511Z,2.25
2023-05-12T13:38:58.993Z,4.55
2023-05-12T13:41:44.416Z,4.95
2023-05-12T13:44:30.065Z,2.22
2023-05-12T13:47:15.840Z,2.90
2023-05-12T13:50:01.417Z,1.60
2023-05-12T13:52:49.792Z,2.58
2023-05-12T13:55:40.663Z,3.25
2023-05-12T13:58:26.664Z,1.67
2023-05-12T14:01:12.536Z,1.73
2023-05-12T14:03:58.225Z,2.35
2023-05-12T14:06:43.989Z,2.25
2023-05-12T14:09:29.339Z,3.47
2023-05-12T14:12:16.056Z,5.43
2023-05-12T14:15:19.846Z,1.50
2023-05-12T14:18:08.836Z,2.25
2023-05-12T14:20:54.612Z,4.72
2023-05-12T14:23:40.147Z,1.67
2023-05-12T14:26:26.109Z,2.17
2023-05-12T14:29:11.566Z,1.63
2023-05-12T14:31:57.217Z,1.55
2023-05-12T14:34:42.820Z,3.92
2023-05-12T14:37:28.279Z,1.83
2023-05-12T14:40:14.242Z,8.05
2023-05-12T14:43:00.147Z,3.33
2023-05-12T14:45:54.316Z,3.13
2023-05-12T14:48:39.825Z,6.63
2023-05-12T14:51:25.283Z,3.40
2023-05-12T14:54:24.345Z,2.63
2023-05-12T14:57:10.805Z,4.05
2023-05-12T14:59:58.693Z,3.60
2023-05-12T15:02:45.207Z,12.05
2023-05-12T15:05:52.829Z,1.88
2023-05-12T15:08:36.065Z,4.03
2023-05-12T15:11:21.997Z,1.45
2023-05-12T15:14:07.412Z,3.33
2023-05-12T15:16:53.017Z,4.50
2023-05-12T15:19:38.729Z,1.55
2023-05-12T15:22:24.102Z,2.15
2023-05-12T15:25:10.035Z,5.60
2023-05-12T15:27:55.798Z,3.05
2023-05-12T15:30:41.378Z,5.20
2023-05-12T15:33:26.972Z,3.13
2023-05-12T15:36:13.603Z,6.88
2023-05-12T15:38:59.723Z,3.13
2023-05-12T15:41:45.236Z,4.93
2023-05-12T15:44:31.651Z,9.18
2023-05-12T15:47:17.410Z,8.70
2023-05-12T15:50:03.959Z,11.10
2023-05-12T15:52:50.093Z,11.75
2023-05-12T15:55:35.871Z,8.98
2023-05-12T15:58:21.382Z,5.05
2023-05-12T16:01:07.290Z,7.88
2023-05-12T16:03:53.979Z,2.10
2023-05-12T16:06:39.644Z,5.60
2023-05-12T16:09:25.107Z,1.52
2023-05-12T16:12:11.755Z,3.10
2023-05-12T16:14:57.346Z,3.45
2023-05-12T16:17:46.994Z,1.73
2023-05-12T16:20:34.567Z,5.93
2023-05-12T16:23:20.451Z,5.75
2023-05-12T16:26:06.286Z,8.55
2023-05-12T16:28:52.211Z,6.18
2023-05-12T16:31:37.908Z,1.42
2023-05-12T16:34:25.701Z,4.80
2023-05-12T16:37:11.272Z,2.10
2023-05-12T16:39:56.657Z,3.38
2023-05-12T16:42:42.797Z,1.92
2023-05-12T16:45:28.623Z,5.35
2023-05-12T16:48:14.152Z,6.53
2023-05-12T16:51:06.998Z,6.35
2023-05-12T16:53:52.550Z,4.03
2023-05-12T16:56:38.940Z,6.50
2023-05-12T16:59:25.010Z,4.32
2023-05-12T17:02:11.157Z,6.05
2023-05-12T17:04:56.423Z,8.10
2023-05-12T17:07:42.276Z,3.40
2023-05-12T17:10:27.628Z,2.17
2023-05-12T17:13:13.169Z,6.50
2023-05-12T17:15:58.664Z,5.70
2023-05-12T17:21:33.709Z,6.60
2023-05-12T17:24:19.200Z,5.22
2023-05-12T17:27:05.365Z,9.93
2023-05-12T17:29:50.663Z,5.82
2023-05-12T17:32:36.720Z,6.30
2023-05-12T17:35:22.830Z,7.13
2023-05-12T17:38:09.262Z,7.63
2023-05-12T17:40:55.360Z,8.40
2023-05-12T17:43:41.437Z,8.35
2023-05-12T17:46:26.841Z,12.35
2023-05-12T17:49:12.213Z,7.63
2023-05-12T17:51:57.539Z,18.52
2023-05-12T17:54:43.206Z,6.80
2023-05-12T17:57:28.892Z,9.18
2023-05-12T18:00:15.841Z,8.55
2023-05-12T18:03:03.059Z,10.75
2023-05-12T18:05:50.848Z,13.63
2023-05-12T18:08:36.538Z,7.78
2023-05-12T18:11:22.627Z,13.07
2023-05-12T18:14:09.867Z,16.20
2023-05-12T18:16:57.429Z,18.38
2023-05-12T18:19:44.522Z,43.08
2023-05-12T18:22:30.082Z,75.30
2023-05-12T18:25:15.829Z,32.45
2023-05-12T18:28:01.627Z,32.53
2023-05-12T18:30:47.416Z,48.85
2023-05-12T18:33:32.697Z,34.65
2023-05-12T18:36:18.698Z,23.23
2023-05-12T18:39:04.831Z,16.25
2023-05-12T18:41:50.885Z,9.82
2023-05-12T18:44:41.249Z,21.05
2023-05-12T18:47:27.704Z,14.00
2023-05-12T18:50:13.133Z,17.80
2023-05-12T18:53:01.037Z,21.35
2023-05-12T18:55:48.234Z,9.30
2023-05-12T18:58:33.698Z,14.30
2023-05-12T19:01:19.462Z,14.02
2023-05-12T19:04:05.090Z,21.92
2023-05-12T19:06:50.570Z,22.52
2023-05-12T19:09:37.052Z,42.33
2023-05-12T19:12:22.525Z,20.17
2023-05-12T19:15:10.270Z,14.20
2023-05-12T19:17:57.926Z,9.07
2023-05-12T19:20:44.560Z,14.52
2023-05-12T19:23:30.786Z,9.07
2023-05-12T19:26:16.803Z,6.47
2023-05-12T19:29:02.269Z,14.85
2023-05-12T19:31:47.920Z,4.90
2023-05-12T19:34:33.801Z,7.68
2023-05-12T19:37:20.065Z,6.68
2023-05-12T19:40:07.167Z,4.88
2023-05-12T19:42:53.106Z,7.40
2023-05-12T19:45:39.510Z,7.70
2023-05-12T19:48:25.353Z,8.68
2023-05-12T19:51:11.891Z,7.07
2023-05-12T19:53:58.183Z,5.20
2023-05-12T19:56:43.581Z,8.82
2023-05-12T19:59:28.857Z,6.10
2023-05-12T20:02:16.686Z,6.55
2023-05-12T20:05:02.889Z,5.35
2023-05-12T20:07:48.704Z,7.25
2023-05-12T20:10:34.500Z,7.65
2023-05-12T20:13:19.848Z,6.22
2023-05-12T20:16:05.881Z,5.57
2023-05-12T20:18:52.112Z,3.58
2023-05-12T20:21:38.103Z,8.35
2023-05-12T20:24:23.640Z,5.32
2023-05-12T20:27:08.993Z,5.38
2023-05-12T20:29:54.251Z,4.35
2023-05-12T20:32:39.955Z,5.57
2023-05-12T20:35:25.634Z,8.85
2023-05-12T20:38:11.376Z,4.15
2023-05-12T20:40:56.600Z,3.33
2023-05-12T20:43:41.968Z,3.95
2023-05-12T20:46:28.307Z,4.90
2023-05-12T20:49:14.625Z,6.47
2023-05-12T20:52:00.236Z,5.03
2023-05-12T20:54:45.746Z,9.30
2023-05-12T20:57:31.235Z,5.90
2023-05-12T21:00:17.268Z,7.80
2023-05-12T21:03:05.646Z,4.80
2023-05-12T21:05:51.862Z,4.45
2023-05-12T21:08:37.038Z,6.97
2023-05-12T21:11:22.371Z,4.93
2023-05-12T21:14:07.783Z,4.93
2023-05-12T21:16:53.119Z,14.73
2023-05-12T21:19:39.772Z,10.00
2023-05-12T21:22:25.454Z,8.73
2023-05-12T21:25:10.764Z,3.80
2023-05-12T21:27:56.545Z,4.68
2023-05-12T21:30:42.173Z,6.63
2023-05-12T21:33:27.908Z,9.77
2023-05-12T21:36:13.651Z,4.80
2023-05-12T21:38:58.947Z,4.20
2023-05-12T21:41:44.433Z,5.43
2023-05-12T21:44:29.997Z,7.95
2023-05-12T21:47:15.455Z,4.20
2023-05-12T21:50:01.396Z,7.00
2023-05-12T21:52:46.752Z,5.07
2023-05-12T21:55:32.638Z,7.20
2023-05-12T21:58:18.437Z,4.97
2023-05-12T22:01:03.664Z,4.57
2023-05-12T22:03:49.838Z,8.23
2023-05-12T22:06:35.469Z,6.57
2023-05-12T22:09:21.901Z,9.20
2023-05-12T22:12:08.739Z,6.32
2023-05-12T22:14:54.184Z,11.77
2023-05-12T22:17:40.045Z,6.82
2023-05-12T22:20:25.787Z,5.13
2023-05-12T22:23:11.440Z,5.65
2023-05-12T22:25:57.129Z,4.57
2023-05-12T22:28:42.670Z,13.20
2023-05-12T22:31:28.485Z,6.22
2023-05-12T22:34:13.810Z,5.95
2023-05-12T22:36:59.180Z,5.57
2023-05-12T22:39:44.594Z,8.07
2023-05-12T22:42:29.848Z,5.70
2023-05-12T22:45:15.693Z,5.40
2023-05-12T22:48:01.071Z,4.53
2023-05-12T22:50:46.472Z,7.75
2023-05-12T22:53:31.938Z,5.78
2023-05-12T22:56:18.062Z,4.78
2023-05-12T22:59:03.480Z,5.43
2023-05-12T23:01:48.835Z,10.07
2023-05-12T23:04:34.188Z,7.50
2023-05-12T23:07:19.558Z,6.60
2023-05-12T23:10:05.519Z,8.93
2023-05-12T23:12:50.951Z,5.20
2023-05-12T23:15:36.234Z,6.75
2023-05-12T23:18:21.749Z,4.07
2023-05-12T23:21:07.280Z,4.57
2023-05-12T23:23:52.692Z,5.18
2023-05-12T23:26:38.475Z,7.47
2023-05-12T23:29:23.912Z,9.07
2023-05-12T23:32:09.338Z,7.07
2023-05-12T23:34:54.663Z,15.43
2023-05-12T23:37:40.236Z,14.88
2023-05-12T23:40:25.766Z,8.45
2023-05-12T23:43:10.939Z,11.13
2023-05-12T23:45:57.023Z,10.70
2023-05-12T23:48:42.451Z,12.57
2023-05-12T23:51:28.765Z,8.75
2023-05-12T23:54:14.501Z,7.38
2023-05-12T23:56:59.925Z,7.05
2023-05-12T23:59:45.516Z,6.35
